Time;durP1;ratioP1;P1;durP2;ratioP2;P2;SDS_P1;SDS_P2;PMS_P1;PMS_P2;Temp;Humidity;BMP_temperature;BMP_pressure;BME280_temperature;BME280_humidity;BME280_pressure;Samples;Min_cycle;Max_cycle;Signal;HPM_P1;HPM_P2
2022/01/27 00:01:53;;;;;;;77.47;32.88;;;;;;;;;;5023727;28;20112;-72
2022/01/27 00:04:28;;;;;;;73.72;31.35;;;;;;;;;;5025860;28;20038;-72
2022/01/27 00:06:53;;;;;;;76.65;33.10;;;;;;;;;;5027669;28;20132;-72
2022/01/27 00:11:46;;;;;;;78.82;34.30;;;;;;;;;;5019784;28;20076;-70
2022/01/27 00:14:13;;;;;;;74.25;32.75;;;;;;;;;;5026892;28;20447;-71
2022/01/27 00:16:42;;;;;;;77.70;32.80;;;;;;;;;;5021131;28;20040;-71
2022/01/27 00:19:09;;;;;;;76.88;34.15;;;;;;;;;;5026314;28;20499;-70
2022/01/27 00:21:34;;;;;;;79.90;34.38;;;;;;;;;;5026852;28;20037;-71
2022/01/27 00:23:59;;;;;;;81.57;34.75;;;;;;;;;;5004458;28;20117;-70
2022/01/27 00:26:25;;;;;;;83.25;36.38;;;;;;;;;;5027205;28;20172;-72
2022/01/27 00:28:50;;;;;;;83.13;35.30;;;;;;;;;;5026909;28;20079;-71
2022/01/27 00:31:17;;;;;;;81.57;33.50;;;;;;;;;;5057045;28;20064;-72
2022/01/27 00:33:43;;;;;;;74.07;32.22;;;;;;;;;;5068728;28;20182;-71
2022/01/27 00:36:08;;;;;;;81.07;34.97;;;;;;;;;;5069272;28;20114;-72
2022/01/27 00:38:33;;;;;;;81.05;33.78;;;;;;;;;;5068884;28;20051;-71
2022/01/27 00:40:59;;;;;;;79.50;35.20;;;;;;;;;;5066250;28;20016;-72
2022/01/27 00:43:24;;;;;;;77.45;33.38;;;;;;;;;;5067598;28;20086;-71
2022/01/27 00:45:49;;;;;;;82.65;34.75;;;;;;;;;;5068772;28;20028;-70
2022/01/27 00:48:17;;;;;;;77.43;34.47;;;;;;;;;;5067516;28;20043;-71
2022/01/27 00:50:42;;;;;;;74.05;32.47;;;;;;;;;;5068050;28;20016;-71
2022/01/27 00:53:22;;;;;;;76.82;33.75;;;;;;;;;;5060313;28;20082;-71
2022/01/27 00:55:48;;;;;;;78.38;34.33;;;;;;;;;;5064939;28;20516;-72
2022/01/27 01:01:14;;;;;;;75.33;32.50;;;;;;;;;;5037441;28;20039;-71
2022/01/27 01:03:43;;;;;;;75.50;32.30;;;;;;;;;;5039899;28;20039;-71
2022/01/27 01:17:04;;;;;;;83.50;36.10;;;;;;;;;;5034979;28;20228;-71
2022/01/27 01:19:40;;;;;;;79.38;34.03;;;;;;;;;;5044405;28;20503;-73
2022/01/27 01:32:51;;;;;;;82.57;36.03;;;;;;;;;;5037456;28;20123;-71
2022/01/27 01:35:26;;;;;;;84.05;36.65;;;;;;;;;;5046526;28;20018;-71
2022/01/27 01:37:52;;;;;;;81.55;35.13;;;;;;;;;;5059307;28;20048;-70
2022/01/27 01:40:17;;;;;;;84.07;38.20;;;;;;;;;;5067742;28;20050;-71
2022/01/27 01:42:43;;;;;;;83.18;37.30;;;;;;;;;;5065082;28;20032;-71
2022/01/27 01:45:10;;;;;;;84.30;36.67;;;;;;;;;;5061640;28;20491;-71
2022/01/27 01:47:35;;;;;;;82.22;36.30;;;;;;;;;;5066645;28;20032;-71
2022/01/27 01:50:00;;;;;;;81.18;35.67;;;;;;;;;;5063262;28;20030;-72
2022/01/27 01:52:25;;;;;;;89.97;37.27;;;;;;;;;;5057806;28;20125;-70
2022/01/27 01:54:53;;;;;;;91.25;37.53;;;;;;;;;;5061544;28;20128;-71
2022/01/27 01:57:18;;;;;;;76.37;33.60;;;;;;;;;;5066329;28;20024;-72
2022/01/27 01:59:43;;;;;;;81.53;34.83;;;;;;;;;;5062172;28;20152;-70
2022/01/27 02:02:12;;;;;;;80.53;34.55;;;;;;;;;;5058272;28;20029;-73
2022/01/27 02:04:37;;;;;;;79.68;34.75;;;;;;;;;;5062259;28;20119;-70
2022/01/27 02:07:09;;;;;;;80.13;35.83;;;;;;;;;;5066880;28;20114;-71
2022/01/27 02:20:11;;;;;;;79.18;34.58;;;;;;;;;;5061189;28;20094;-70
2022/01/27 02:22:37;;;;;;;79.43;35.20;;;;;;;;;;5066419;28;20049;-70
2022/01/27 02:25:03;;;;;;;77.93;34.60;;;;;;;;;;5068162;28;20021;-70
2022/01/27 02:27:29;;;;;;;81.18;35.17;;;;;;;;;;5067433;28;20400;-71
2022/01/27 02:29:54;;;;;;;84.28;35.35;;;;;;;;;;5065444;28;20028;-71
2022/01/27 02:32:22;;;;;;;82.85;35.67;;;;;;;;;;5056414;28;20017;-69
2022/01/27 02:34:47;;;;;;;82.22;36.47;;;;;;;;;;5058644;28;20093;-70
2022/01/27 02:37:13;;;;;;;79.80;34.05;;;;;;;;;;5067735;28;20395;-72
2022/01/27 02:39:38;;;;;;;87.68;37.47;;;;;;;;;;5068004;28;20099;-71
2022/01/27 02:42:16;;;;;;;79.82;35.25;;;;;;;;;;5066106;28;20020;-71
2022/01/27 02:44:47;;;;;;;84.53;34.53;;;;;;;;;;5064710;28;20510;-71
2022/01/27 02:47:13;;;;;;;89.90;37.07;;;;;;;;;;5065121;28;20047;-70
2022/01/27 02:49:39;;;;;;;84.33;34.67;;;;;;;;;;5068225;28;20418;-71
2022/01/27 02:52:04;;;;;;;79.20;34.70;;;;;;;;;;5065883;28;20074;-70
2022/01/27 02:54:29;;;;;;;84.67;35.53;;;;;;;;;;5065523;28;20074;-71
2022/01/27 02:56:54;;;;;;;86.50;36.53;;;;;;;;;;5067256;28;20032;-72
2022/01/27 02:59:21;;;;;;;84.50;36.03;;;;;;;;;;5067626;28;20054;-70
2022/01/27 03:01:47;;;;;;;85.33;36.40;;;;;;;;;;5060529;28;20017;-71
2022/01/27 03:04:12;;;;;;;86.17;35.27;;;;;;;;;;5067174;28;20044;-70
2022/01/27 03:06:37;;;;;;;79.80;34.67;;;;;;;;;;5063133;28;20408;-71
2022/01/27 03:09:02;;;;;;;79.70;36.13;;;;;;;;;;5071224;28;20025;-71
2022/01/27 03:11:37;;;;;;;91.30;38.67;;;;;;;;;;5071566;28;20024;-70
2022/01/27 03:14:03;;;;;;;91.20;38.33;;;;;;;;;;5071633;28;20479;-71
2022/01/27 03:16:28;;;;;;;91.37;38.27;;;;;;;;;;5059633;28;20021;-71
2022/01/27 03:18:53;;;;;;;88.10;36.93;;;;;;;;;;5060189;28;20028;-71
2022/01/27 03:21:19;;;;;;;97.27;40.13;;;;;;;;;;5071203;28;20029;-71
2022/01/27 03:23:44;;;;;;;87.53;37.07;;;;;;;;;;5064306;28;20032;-70
2022/01/27 03:26:09;;;;;;;90.33;37.67;;;;;;;;;;5070834;28;20058;-71
2022/01/27 03:28:34;;;;;;;89.17;39.23;;;;;;;;;;5071871;28;20391;-70
2022/01/27 03:30:59;;;;;;;92.83;36.87;;;;;;;;;;5069406;28;20028;-70
2022/01/27 03:33:25;;;;;;;89.60;38.37;;;;;;;;;;5066613;28;20037;-70
2022/01/27 03:35:50;;;;;;;96.90;39.63;;;;;;;;;;5071566;28;20040;-70
2022/01/27 03:38:15;;;;;;;91.20;38.83;;;;;;;;;;5068912;28;20039;-70
2022/01/27 03:40:40;;;;;;;92.03;38.70;;;;;;;;;;5065606;28;20388;-71
2022/01/27 03:43:09;;;;;;;89.60;38.10;;;;;;;;;;5067373;28;20439;-72
2022/01/27 03:45:34;;;;;;;88.00;38.37;;;;;;;;;;5071359;28;20116;-70
2022/01/27 03:47:59;;;;;;;92.67;38.33;;;;;;;;;;5070241;28;20368;-70
2022/01/27 03:50:24;;;;;;;92.97;38.87;;;;;;;;;;5063724;28;20078;-70
2022/01/27 03:52:50;;;;;;;95.57;38.40;;;;;;;;;;5068740;28;20081;-70
2022/01/27 03:55:15;;;;;;;95.40;38.50;;;;;;;;;;5071091;28;20020;-71
2022/01/27 03:57:40;;;;;;;95.87;40.10;;;;;;;;;;5065672;28;20035;-70
2022/01/27 04:00:06;;;;;;;99.00;39.33;;;;;;;;;;5064411;28;20016;-71
2022/01/27 04:02:34;;;;;;;90.53;39.20;;;;;;;;;;5060079;28;20516;-71
2022/01/27 04:04:59;;;;;;;95.03;38.90;;;;;;;;;;5070443;28;20112;-71
2022/01/27 04:07:24;;;;;;;97.20;40.80;;;;;;;;;;5063602;28;20135;-70
2022/01/27 04:09:49;;;;;;;94.03;38.70;;;;;;;;;;5064885;28;20040;-72
2022/01/27 04:12:14;;;;;;;93.20;38.73;;;;;;;;;;5067174;28;20116;-71
2022/01/27 04:14:39;;;;;;;94.30;40.20;;;;;;;;;;5064205;28;20029;-71
2022/01/27 04:17:05;;;;;;;94.97;38.07;;;;;;;;;;5066925;28;20497;-70
2022/01/27 04:19:30;;;;;;;91.67;37.47;;;;;;;;;;5061817;28;20025;-70
2022/01/27 04:21:55;;;;;;;94.53;39.87;;;;;;;;;;5066564;28;20021;-71
2022/01/27 04:24:20;;;;;;;87.53;37.77;;;;;;;;;;5070441;28;20059;-70
2022/01/27 04:26:50;;;;;;;95.77;40.43;;;;;;;;;;5070218;28;20012;-72
2022/01/27 04:29:19;;;;;;;92.60;38.33;;;;;;;;;;5069498;28;20783;-70
2022/01/27 04:31:46;;;;;;;88.50;37.80;;;;;;;;;;5070076;28;20063;-69
2022/01/27 04:34:12;;;;;;;87.67;36.03;;;;;;;;;;5069804;28;20116;-69
2022/01/27 04:36:39;;;;;;;89.40;37.20;;;;;;;;;;5069649;28;20383;-69
2022/01/27 04:41:43;;;;;;;85.03;37.47;;;;;;;;;;5066134;28;20028;-70
2022/01/27 04:44:20;;;;;;;85.20;37.30;;;;;;;;;;5069711;28;20020;-71
2022/01/27 04:47:10;;;;;;;85.77;35.33;;;;;;;;;;5066182;28;20023;-71
2022/01/27 04:49:35;;;;;;;81.73;35.80;;;;;;;;;;5064973;28;20468;-69
2022/01/27 04:52:01;;;;;;;85.07;36.50;;;;;;;;;;5065230;28;20085;-69
2022/01/27 04:54:33;;;;;;;83.97;36.83;;;;;;;;;;5069434;28;20491;-69
2022/01/27 04:57:00;;;;;;;86.30;36.53;;;;;;;;;;5069620;28;20115;-69
2022/01/27 04:59:29;;;;;;;84.87;35.57;;;;;;;;;;5069378;28;20401;-71
2022/01/27 05:02:01;;;;;;;82.63;35.53;;;;;;;;;;5068174;28;20115;-71
2022/01/27 05:04:31;;;;;;;85.53;37.63;;;;;;;;;;5069820;28;20476;-71
2022/01/27 05:06:57;;;;;;;84.63;36.23;;;;;;;;;;5069294;28;20415;-70
2022/01/27 05:09:25;;;;;;;86.63;37.57;;;;;;;;;;5069125;28;20043;-70
2022/01/27 05:11:55;;;;;;;83.87;35.47;;;;;;;;;;5063867;28;20106;-71
2022/01/27 05:14:24;;;;;;;80.80;35.60;;;;;;;;;;5065073;28;20105;-72
2022/01/27 05:16:50;;;;;;;79.65;34.65;;;;;;;;;;5069462;28;20077;-70
2022/01/27 05:19:15;;;;;;;80.77;36.43;;;;;;;;;;5063019;28;20764;-73
2022/01/27 05:21:41;;;;;;;77.10;34.10;;;;;;;;;;5067088;28;20040;-71
2022/01/27 05:24:07;;;;;;;79.53;35.17;;;;;;;;;;5066416;28;20169;-71
2022/01/27 05:26:33;;;;;;;91.17;38.77;;;;;;;;;;5068749;28;20051;-70
2022/01/27 05:28:58;;;;;;;82.70;34.93;;;;;;;;;;5065349;28;20036;-70
2022/01/27 05:31:24;;;;;;;85.90;37.00;;;;;;;;;;5069021;28;20032;-69
2022/01/27 05:33:49;;;;;;;80.43;35.40;;;;;;;;;;5066271;28;20386;-71
2022/01/27 05:36:14;;;;;;;81.87;36.37;;;;;;;;;;5069259;28;20030;-70
2022/01/27 05:38:39;;;;;;;75.40;34.40;;;;;;;;;;5069000;28;20471;-70
2022/01/27 05:41:05;;;;;;;86.17;37.10;;;;;;;;;;5069434;28;20062;-71
2022/01/27 05:43:30;;;;;;;87.50;36.37;;;;;;;;;;5067840;28;20039;-69
2022/01/27 05:45:55;;;;;;;81.87;35.90;;;;;;;;;;5068756;28;20021;-70
2022/01/27 05:48:21;;;;;;;86.00;36.80;;;;;;;;;;5068682;28;20044;-71
2022/01/27 05:50:46;;;;;;;80.87;35.93;;;;;;;;;;5068418;28;20087;-70
2022/01/27 05:53:12;;;;;;;79.30;32.80;;;;;;;;;;5068852;28;20491;-72
2022/01/27 05:55:37;;;;;;;78.33;33.87;;;;;;;;;;5066231;28;20028;-71
2022/01/27 05:58:02;;;;;;;77.57;33.57;;;;;;;;;;5069011;28;20055;-71
2022/01/27 06:00:27;;;;;;;80.10;35.57;;;;;;;;;;5068754;28;20074;-72
2022/01/27 06:02:53;;;;;;;82.83;36.50;;;;;;;;;;5068757;28;20491;-70
2022/01/27 06:05:18;;;;;;;79.63;35.80;;;;;;;;;;5067065;28;20025;-72
2022/01/27 06:07:43;;;;;;;85.47;36.53;;;;;;;;;;5068926;28;20128;-72
2022/01/27 06:10:08;;;;;;;76.60;34.20;;;;;;;;;;5067991;28;20456;-70
2022/01/27 06:12:34;;;;;;;74.60;33.73;;;;;;;;;;5063415;28;20020;-71
2022/01/27 06:14:59;;;;;;;70.43;31.20;;;;;;;;;;5060383;28;20021;-71
2022/01/27 06:17:24;;;;;;;74.90;31.73;;;;;;;;;;5054314;28;20173;-69
2022/01/27 06:19:54;;;;;;;69.53;33.77;;;;;;;;;;5060372;28;20028;-70
2022/01/27 06:22:19;;;;;;;73.27;33.40;;;;;;;;;;5057502;28;20075;-69
2022/01/27 06:24:44;;;;;;;74.07;33.67;;;;;;;;;;5060303;28;20028;-70
2022/01/27 06:27:10;;;;;;;69.23;31.53;;;;;;;;;;5066856;28;20068;-70
2022/01/27 06:29:36;;;;;;;72.10;31.77;;;;;;;;;;5068552;28;20552;-71
2022/01/27 06:32:01;;;;;;;66.43;29.43;;;;;;;;;;5063261;28;20029;-72
2022/01/27 06:34:26;;;;;;;71.53;32.27;;;;;;;;;;5066343;28;20032;-71
2022/01/27 06:36:52;;;;;;;73.03;33.10;;;;;;;;;;5068419;28;20029;-71
2022/01/27 06:39:17;;;;;;;72.13;33.33;;;;;;;;;;5072883;28;20101;-72
2022/01/27 06:41:43;;;;;;;67.93;29.80;;;;;;;;;;5072441;28;20029;-72
2022/01/27 06:44:09;;;;;;;68.57;31.73;;;;;;;;;;5072869;28;20047;-70
2022/01/27 06:46:35;;;;;;;64.27;30.77;;;;;;;;;;5068432;28;20672;-71
2022/01/27 06:49:00;;;;;;;70.30;31.77;;;;;;;;;;5069689;28;20063;-72
2022/01/27 06:51:26;;;;;;;67.00;31.90;;;;;;;;;;5071190;28;20057;-71
2022/01/27 06:53:52;;;;;;;73.60;32.77;;;;;;;;;;5073214;28;20625;-71
2022/01/27 06:56:17;;;;;;;70.33;32.83;;;;;;;;;;5069972;28;20055;-71
2022/01/27 06:58:42;;;;;;;67.60;29.60;;;;;;;;;;5071993;28;20475;-71
2022/01/27 07:01:07;;;;;;;71.47;32.67;;;;;;;;;;5069712;28;20106;-70
2022/01/27 07:03:32;;;;;;;70.52;32.52;;;;;;;;;;5072540;28;20395;-70
2022/01/27 07:05:57;;;;;;;72.97;32.30;;;;;;;;;;5070143;28;20048;-70
2022/01/27 07:08:23;;;;;;;72.67;32.80;;;;;;;;;;5064267;28;20381;-70
2022/01/27 07:10:48;;;;;;;69.60;31.97;;;;;;;;;;5063531;28;20017;-71
2022/01/27 07:13:14;;;;;;;64.83;31.70;;;;;;;;;;5072357;28;20691;-71
2022/01/27 07:15:39;;;;;;;62.77;31.27;;;;;;;;;;5070356;28;20431;-69
2022/01/27 07:18:04;;;;;;;65.03;29.83;;;;;;;;;;5067659;28;20114;-68
2022/01/27 07:20:29;;;;;;;61.07;29.00;;;;;;;;;;5071744;28;20013;-68
2022/01/27 07:22:55;;;;;;;63.90;30.68;;;;;;;;;;5065582;28;20044;-67
2022/01/27 07:25:20;;;;;;;66.13;30.27;;;;;;;;;;5070417;28;20042;-68
2022/01/27 07:27:45;;;;;;;61.30;28.07;;;;;;;;;;5058281;28;20451;-68
2022/01/27 07:30:11;;;;;;;64.70;30.13;;;;;;;;;;5059731;28;20025;-69
2022/01/27 07:32:36;;;;;;;60.23;28.37;;;;;;;;;;5070617;28;20121;-68
2022/01/27 07:35:04;;;;;;;61.90;29.27;;;;;;;;;;5069509;28;20103;-68
2022/01/27 07:37:29;;;;;;;60.53;27.57;;;;;;;;;;5071486;28;20070;-67
2022/01/27 07:39:54;;;;;;;53.57;27.73;;;;;;;;;;5070466;28;20476;-69
2022/01/27 07:42:19;;;;;;;54.90;26.07;;;;;;;;;;5064989;28;20017;-67
2022/01/27 07:44:44;;;;;;;53.87;26.73;;;;;;;;;;5071796;28;20036;-67
2022/01/27 07:47:10;;;;;;;54.33;26.67;;;;;;;;;;5071433;28;20100;-68
2022/01/27 07:49:36;;;;;;;53.33;26.17;;;;;;;;;;5070483;28;20379;-67
2022/01/27 07:52:01;;;;;;;51.77;24.30;;;;;;;;;;5066961;28;20020;-68
2022/01/27 07:54:27;;;;;;;51.33;24.70;;;;;;;;;;5069937;28;20031;-68
2022/01/27 07:56:52;;;;;;;52.87;24.50;;;;;;;;;;5065373;28;20020;-59
2022/01/27 07:59:17;;;;;;;54.53;26.47;;;;;;;;;;5070737;28;20036;-61
2022/01/27 08:01:42;;;;;;;51.10;24.90;;;;;;;;;;5068097;28;20095;-61
2022/01/27 08:04:07;;;;;;;44.23;22.57;;;;;;;;;;5070547;28;20037;-60
2022/01/27 08:06:33;;;;;;;40.55;22.65;;;;;;;;;;5069817;28;20037;-59
2022/01/27 08:08:58;;;;;;;39.53;20.20;;;;;;;;;;5064341;28;20025;-61
2022/01/27 08:11:23;;;;;;;39.17;20.63;;;;;;;;;;5070755;28;20155;-60
2022/01/27 08:13:48;;;;;;;41.65;21.38;;;;;;;;;;5064311;28;20039;-62
2022/01/27 08:16:14;;;;;;;42.17;20.77;;;;;;;;;;5069514;28;20017;-61
2022/01/27 08:18:39;;;;;;;38.30;19.20;;;;;;;;;;5071021;28;20032;-62
2022/01/27 08:21:04;;;;;;;32.30;17.92;;;;;;;;;;5070474;28;20435;-60
2022/01/27 08:23:29;;;;;;;31.20;16.67;;;;;;;;;;5064833;28;20029;-61
2022/01/27 08:26:09;;;;;;;28.63;14.90;;;;;;;;;;5070096;28;20031;-60
2022/01/27 08:28:41;;;;;;;29.77;15.68;;;;;;;;;;5070239;28;20037;-61
2022/01/27 08:31:07;;;;;;;26.50;13.63;;;;;;;;;;5070765;28;20028;-61
2022/01/27 08:33:33;;;;;;;26.15;13.38;;;;;;;;;;5068993;28;20380;-60
2022/01/27 08:35:59;;;;;;;25.13;13.63;;;;;;;;;;5064132;28;20176;-60
2022/01/27 08:38:27;;;;;;;22.48;12.02;;;;;;;;;;5070693;28;20438;-60
2022/01/27 08:40:53;;;;;;;21.20;12.35;;;;;;;;;;5070691;28;20020;-60
2022/01/27 08:43:18;;;;;;;21.67;11.32;;;;;;;;;;5070686;28;20035;-61
2022/01/27 08:45:44;;;;;;;19.73;10.63;;;;;;;;;;5061817;28;20020;-60
2022/01/27 08:48:12;;;;;;;20.45;10.55;;;;;;;;;;5070520;28;20104;-61
2022/01/27 08:50:38;;;;;;;20.65;10.38;;;;;;;;;;5070672;28;20132;-60
2022/01/27 08:53:03;;;;;;;16.45;9.48;;;;;;;;;;5069934;28;20100;-61
2022/01/27 08:55:28;;;;;;;17.25;9.43;;;;;;;;;;5067536;28;20029;-61
2022/01/27 08:57:54;;;;;;;18.30;9.93;;;;;;;;;;5070403;28;20135;-61
2022/01/27 09:00:19;;;;;;;19.50;9.82;;;;;;;;;;5070004;28;20493;-61
2022/01/27 09:02:45;;;;;;;15.55;8.98;;;;;;;;;;5070407;28;20034;-60
2022/01/27 09:05:10;;;;;;;15.75;8.90;;;;;;;;;;5069062;28;20029;-62
2022/01/27 09:07:36;;;;;;;17.33;7.88;;;;;;;;;;5064012;28;20059;-61
2022/01/27 09:10:02;;;;;;;15.82;7.75;;;;;;;;;;5070903;28;20382;-61
2022/01/27 09:12:27;;;;;;;16.20;7.40;;;;;;;;;;5071896;28;20021;-61
2022/01/27 09:14:52;;;;;;;13.48;6.88;;;;;;;;;;5071529;28;20028;-63
2022/01/27 09:17:17;;;;;;;10.60;6.55;;;;;;;;;;5070500;28;20112;-61
2022/01/27 09:19:45;;;;;;;15.20;7.15;;;;;;;;;;5070322;28;20103;-61
2022/01/27 09:22:13;;;;;;;13.18;6.85;;;;;;;;;;5060406;28;20111;-61
2022/01/27 09:24:48;;;;;;;11.50;6.10;;;;;;;;;;5070389;28;20020;-60
2022/01/27 09:27:13;;;;;;;11.43;6.40;;;;;;;;;;5063618;28;20028;-60
2022/01/27 09:29:39;;;;;;;11.18;6.38;;;;;;;;;;5070027;28;20051;-60
2022/01/27 09:32:05;;;;;;;10.77;6.00;;;;;;;;;;5066151;28;20040;-60
2022/01/27 09:34:31;;;;;;;10.00;6.15;;;;;;;;;;5069852;28;20223;-60
2022/01/27 09:36:57;;;;;;;9.48;5.50;;;;;;;;;;5069210;28;20024;-61
2022/01/27 09:39:23;;;;;;;11.02;5.47;;;;;;;;;;5069383;28;20044;-61
2022/01/27 09:41:52;;;;;;;9.90;5.18;;;;;;;;;;5070129;28;20024;-62
2022/01/27 09:44:19;;;;;;;11.63;5.28;;;;;;;;;;5069922;28;20020;-61
2022/01/27 09:46:46;;;;;;;8.40;4.25;;;;;;;;;;5069541;28;20126;-61
2022/01/27 09:49:17;;;;;;;8.52;4.38;;;;;;;;;;5067922;28;20025;-61
2022/01/27 09:51:45;;;;;;;9.57;4.72;;;;;;;;;;5069384;28;20028;-61
2022/01/27 09:54:11;;;;;;;8.00;4.18;;;;;;;;;;5069225;28;20029;-60
2022/01/27 09:56:36;;;;;;;12.57;4.80;;;;;;;;;;5068983;28;20490;-61
2022/01/27 09:59:02;;;;;;;6.57;3.30;;;;;;;;;;5067616;28;20025;-62
2022/01/27 10:01:28;;;;;;;9.30;3.38;;;;;;;;;;5068989;28;20500;-61
2022/01/27 10:03:53;;;;;;;9.45;3.45;;;;;;;;;;5065462;28;20029;-60
2022/01/27 10:06:19;;;;;;;7.40;3.00;;;;;;;;;;5068976;28;20041;-60
2022/01/27 10:08:44;;;;;;;5.55;2.58;;;;;;;;;;5067967;28;20494;-60
2022/01/27 10:11:16;;;;;;;5.03;2.80;;;;;;;;;;5061121;28;20027;-61
2022/01/27 10:13:43;;;;;;;6.43;2.55;;;;;;;;;;5068432;28;20031;-61
2022/01/27 10:16:26;;;;;;;5.10;2.60;;;;;;;;;;5069192;28;20028;-62
2022/01/27 10:19:02;;;;;;;5.72;2.47;;;;;;;;;;5068952;28;20036;-60
2022/01/27 10:21:31;;;;;;;5.03;2.63;;;;;;;;;;5066042;28;20480;-61
2022/01/27 10:23:57;;;;;;;4.95;2.45;;;;;;;;;;5069062;28;20035;-61
2022/01/27 10:26:24;;;;;;;5.75;2.30;;;;;;;;;;5068863;28;20021;-61
2022/01/27 10:29:06;;;;;;;5.25;2.30;;;;;;;;;;5069179;28;20024;-60
2022/01/27 10:31:31;;;;;;;10.10;2.80;;;;;;;;;;5068650;28;20498;-61
2022/01/27 10:34:01;;;;;;;4.75;2.00;;;;;;;;;;5069029;28;20063;-61
2022/01/27 10:36:30;;;;;;;7.20;2.30;;;;;;;;;;5068909;28;20108;-60
2022/01/27 10:38:57;;;;;;;4.68;2.00;;;;;;;;;;5068795;28;20032;-61
2022/01/27 10:41:26;;;;;;;3.47;1.95;;;;;;;;;;5066977;28;20055;-61
2022/01/27 10:44:04;;;;;;;8.07;2.30;;;;;;;;;;5068726;28;20109;-59
2022/01/27 10:46:30;;;;;;;7.72;2.10;;;;;;;;;;5068432;28;20024;-60
2022/01/27 10:49:05;;;;;;;4.57;2.15;;;;;;;;;;5069054;28;20028;-60
2022/01/27 10:51:36;;;;;;;6.28;2.40;;;;;;;;;;5067655;28;20033;-60
2022/01/27 10:54:07;;;;;;;4.65;2.10;;;;;;;;;;5068619;28;20033;-61
2022/01/27 10:56:36;;;;;;;7.57;2.17;;;;;;;;;;5068448;28;20105;-60
2022/01/27 10:59:03;;;;;;;6.65;2.03;;;;;;;;;;5068639;28;20051;-62
2022/01/27 11:01:30;;;;;;;5.78;1.70;;;;;;;;;;5068413;28;20024;-61
2022/01/27 11:03:57;;;;;;;4.85;1.77;;;;;;;;;;5066217;28;20030;-60
2022/01/27 11:06:25;;;;;;;5.15;2.33;;;;;;;;;;5068145;28;20044;-62
2022/01/27 11:08:54;;;;;;;4.40;1.98;;;;;;;;;;5068692;28;20371;-60
2022/01/27 11:11:20;;;;;;;8.65;2.20;;;;;;;;;;5068517;28;20026;-62
2022/01/27 11:13:46;;;;;;;4.47;1.85;;;;;;;;;;5064619;28;20638;-60
2022/01/27 11:16:15;;;;;;;5.25;2.03;;;;;;;;;;5068670;28;20039;-61
2022/01/27 11:18:40;;;;;;;5.22;1.90;;;;;;;;;;5068174;28;20033;-60
2022/01/27 11:21:12;;;;;;;6.60;2.78;;;;;;;;;;5066695;28;20529;-62
2022/01/27 11:26:05;;;;;;;4.72;2.20;;;;;;;;;;5071604;28;20169;-61
2022/01/27 11:28:32;;;;;;;3.95;1.92;;;;;;;;;;5071720;28;20833;-61
2022/01/27 11:31:12;;;;;;;6.40;2.08;;;;;;;;;;5068215;28;20056;-61
2022/01/27 11:33:38;;;;;;;5.03;2.20;;;;;;;;;;5065181;28;20028;-61
2022/01/27 11:36:06;;;;;;;4.63;2.10;;;;;;;;;;5066915;28;20107;-60
2022/01/27 11:38:31;;;;;;;4.07;2.15;;;;;;;;;;5071551;28;20036;-59
2022/01/27 11:40:57;;;;;;;5.90;2.63;;;;;;;;;;5072024;28;20100;-61
2022/01/27 11:43:33;;;;;;;6.55;2.67;;;;;;;;;;5071538;28;20552;-61
2022/01/27 11:46:10;;;;;;;5.65;2.75;;;;;;;;;;5066851;28;20025;-62
2022/01/27 11:48:35;;;;;;;6.95;2.38;;;;;;;;;;5071681;28;20442;-61
2022/01/27 11:51:06;;;;;;;4.90;2.28;;;;;;;;;;5071423;28;20097;-61
2022/01/27 11:53:44;;;;;;;3.70;1.80;;;;;;;;;;5064543;28;20021;-61
2022/01/27 11:56:35;;;;;;;4.72;2.00;;;;;;;;;;5069957;28;20028;-60
2022/01/27 11:59:02;;;;;;;4.38;2.10;;;;;;;;;;5071391;28;20039;-60
2022/01/27 12:01:28;;;;;;;6.20;2.35;;;;;;;;;;5071037;28;20482;-61
2022/01/27 12:04:02;;;;;;;3.55;2.03;;;;;;;;;;5070776;28;20108;-60
2022/01/27 12:06:28;;;;;;;5.13;2.20;;;;;;;;;;5070545;28;20044;-60
2022/01/27 12:09:13;;;;;;;5.50;2.25;;;;;;;;;;5071415;28;20655;-60
2022/01/27 12:11:48;;;;;;;4.50;2.08;;;;;;;;;;5071347;28;20035;-61
2022/01/27 12:14:15;;;;;;;5.57;2.40;;;;;;;;;;5071295;28;20032;-60
2022/01/27 12:16:53;;;;;;;5.20;2.30;;;;;;;;;;5069420;28;20020;-59
2022/01/27 12:19:19;;;;;;;3.65;2.17;;;;;;;;;;5071135;28;20107;-60
2022/01/27 12:21:46;;;;;;;4.07;2.05;;;;;;;;;;5070554;28;20250;-61
2022/01/27 12:24:11;;;;;;;4.75;2.10;;;;;;;;;;5070877;28;20068;-61
2022/01/27 12:26:50;;;;;;;4.15;2.10;;;;;;;;;;5070483;28;20044;-60
2022/01/27 12:29:26;;;;;;;5.67;2.37;;;;;;;;;;5064634;28;20042;-60
2022/01/27 12:31:53;;;;;;;5.53;2.70;;;;;;;;;;5064321;28;20025;-60
2022/01/27 12:34:18;;;;;;;6.70;2.67;;;;;;;;;;5065281;28;20021;-60
2022/01/27 12:36:56;;;;;;;5.25;2.95;;;;;;;;;;5064283;28;20091;-61
2022/01/27 12:39:22;;;;;;;5.10;2.65;;;;;;;;;;5059497;28;20102;-60
2022/01/27 12:41:48;;;;;;;7.45;3.45;;;;;;;;;;5060583;28;20020;-61
2022/01/27 12:44:13;;;;;;;5.00;3.08;;;;;;;;;;5061687;28;20024;-61
2022/01/27 12:46:38;;;;;;;5.55;3.33;;;;;;;;;;5059366;28;20534;-60
2022/01/27 12:49:04;;;;;;;7.00;3.30;;;;;;;;;;5058129;28;20059;-60
2022/01/27 12:51:48;;;;;;;5.35;3.10;;;;;;;;;;5062964;28;20500;-61
2022/01/27 12:54:14;;;;;;;5.10;2.88;;;;;;;;;;5059244;28;20025;-60
2022/01/27 12:56:39;;;;;;;6.30;3.38;;;;;;;;;;5059191;28;20811;-59
2022/01/27 12:59:12;;;;;;;6.84;3.28;;;;;;;;;;5060655;28;20028;-60
2022/01/27 13:01:37;;;;;;;6.07;3.35;;;;;;;;;;5058602;28;20755;-61
2022/01/27 13:04:03;;;;;;;9.45;3.88;;;;;;;;;;5062474;28;20029;-60
2022/01/27 13:06:29;;;;;;;10.00;4.72;;;;;;;;;;5057821;28;20082;-60
2022/01/27 13:09:09;;;;;;;8.40;5.07;;;;;;;;;;5058492;28;20122;-61
2022/01/27 13:11:34;;;;;;;;;;;;;;;;;;5063898;28;20066;-60
2022/01/27 13:14:08;;;;;;;13.48;6.78;;;;;;;;;;5061743;28;19912;-61
2022/01/27 13:16:46;;;;;;;12.18;6.65;;;;;;;;;;5060924;28;20090;-62
2022/01/27 13:19:24;;;;;;;13.20;6.30;;;;;;;;;;5066363;28;20060;-61
2022/01/27 13:22:00;;;;;;;14.35;7.53;;;;;;;;;;5061723;28;20438;-61
2022/01/27 13:24:26;;;;;;;13.70;8.07;;;;;;;;;;5061651;28;20029;-60
2022/01/27 13:27:05;;;;;;;14.15;8.20;;;;;;;;;;5066913;28;20016;-61
2022/01/27 13:29:37;;;;;;;18.02;8.93;;;;;;;;;;5067195;28;20115;-60
2022/01/27 13:32:03;;;;;;;14.65;8.25;;;;;;;;;;5067587;28;20031;-61
2022/01/27 13:34:28;;;;;;;15.68;7.75;;;;;;;;;;5063959;28;20036;-61
2022/01/27 13:36:57;;;;;;;15.63;8.85;;;;;;;;;;5063139;28;20107;-62
2022/01/27 13:41:50;;;;;;;15.05;8.40;;;;;;;;;;5053076;28;20039;-60
2022/01/27 13:44:17;;;;;;;13.93;8.25;;;;;;;;;;5062804;28;20084;-61
2022/01/27 13:46:52;;;;;;;17.58;8.85;;;;;;;;;;5066795;28;20040;-60
2022/01/27 13:49:19;;;;;;;15.20;8.20;;;;;;;;;;5067801;28;20524;-60
2022/01/27 13:52:14;;;;;;;14.05;8.52;;;;;;;;;;5062652;28;20112;-61
2022/01/27 13:54:41;;;;;;;15.48;9.02;;;;;;;;;;5041893;28;20033;-62
2022/01/27 13:57:08;;;;;;;16.40;8.82;;;;;;;;;;5043896;28;20094;-59
2022/01/27 13:59:56;;;;;;;15.13;8.63;;;;;;;;;;5038484;28;20049;-60
2022/01/27 14:02:31;;;;;;;16.60;8.88;;;;;;;;;;5045974;28;20106;-60
2022/01/27 14:04:58;;;;;;;16.85;9.07;;;;;;;;;;5040197;28;20040;-59
2022/01/27 14:07:24;;;;;;;16.23;8.85;;;;;;;;;;5035356;28;20122;-62
2022/01/27 14:09:51;;;;;;;16.10;9.10;;;;;;;;;;5044892;28;20036;-61
2022/01/27 14:12:20;;;;;;;17.08;8.90;;;;;;;;;;5044967;28;20034;-60
2022/01/27 14:14:47;;;;;;;14.43;8.75;;;;;;;;;;5040786;28;20057;-61
2022/01/27 14:17:26;;;;;;;15.68;8.75;;;;;;;;;;5038403;28;20044;-60
2022/01/27 14:19:52;;;;;;;15.98;9.38;;;;;;;;;;5042777;28;20033;-60
2022/01/27 14:22:20;;;;;;;16.33;8.98;;;;;;;;;;5038437;28;20017;-61
2022/01/27 14:25:00;;;;;;;16.27;8.80;;;;;;;;;;5046051;28;20159;-61
2022/01/27 14:27:36;;;;;;;15.98;8.90;;;;;;;;;;5045868;28;20032;-61
2022/01/27 14:30:02;;;;;;;16.42;9.70;;;;;;;;;;5046251;28;20052;-62
2022/01/27 14:32:28;;;;;;;18.15;9.80;;;;;;;;;;5057132;28;20032;-61
2022/01/27 14:34:53;;;;;;;16.98;9.30;;;;;;;;;;5057258;28;20021;-60
2022/01/27 14:37:18;;;;;;;17.60;10.50;;;;;;;;;;5062761;28;20506;-61
2022/01/27 14:39:43;;;;;;;16.38;9.43;;;;;;;;;;5059587;28;20306;-60
2022/01/27 14:42:11;;;;;;;18.02;9.80;;;;;;;;;;5064875;28;20730;-61
2022/01/27 14:44:36;;;;;;;17.27;9.10;;;;;;;;;;5064446;28;20039;-61
2022/01/27 14:47:06;;;;;;;17.60;10.20;;;;;;;;;;5062708;28;20439;-60
2022/01/27 14:49:31;;;;;;;16.63;10.15;;;;;;;;;;5060885;28;20028;-60
2022/01/27 14:51:57;;;;;;;17.67;10.13;;;;;;;;;;5058465;28;20230;-59
2022/01/27 14:54:22;;;;;;;19.65;10.23;;;;;;;;;;5065937;28;20407;-61
2022/01/27 14:56:49;;;;;;;18.50;9.82;;;;;;;;;;5061428;28;20441;-61
2022/01/27 14:59:14;;;;;;;17.95;10.48;;;;;;;;;;5057918;28;20029;-60
2022/01/27 15:01:39;;;;;;;19.58;10.65;;;;;;;;;;5067919;28;20021;-61
2022/01/27 15:04:05;;;;;;;20.08;11.73;;;;;;;;;;5069254;28;20032;-60
2022/01/27 15:06:32;;;;;;;22.05;11.95;;;;;;;;;;5066722;28;20037;-63
2022/01/27 15:08:57;;;;;;;20.00;10.95;;;;;;;;;;5067787;28;20418;-61
2022/01/27 15:11:22;;;;;;;24.70;11.05;;;;;;;;;;5056719;28;20032;-61
2022/01/27 15:13:57;;;;;;;19.65;10.32;;;;;;;;;;5072048;28;20174;-63